首页
METAR-TAF:

METAR-TAF

机场 :

莱克兰, 佛罗里达州, 美国

纬度: 27-59N, 经度: 082-01W, 海拔: 43米

当前天气观测

该预报发布于1小时和46分钟前的14:50 UTC
静风
温度 31°C
湿度 66%
气压 1017 hPa
能見度: 16.1公里
多云层高于3500英尺

METAR: KLAL 241450Z 00000KT 10SM BKN035 31/24 A3002

时间: 12:36 (16:36 UTC)

预报

该预报发布于4小时和58分钟前的11:38 UTC
预报有效从24日的 12点(UTC)到 25日的 12点(UTC)
风速3节,风向
能見度: 10公里
多云层高于25000英尺
从 24日的 2000点(UTC)
风速5节,风向西南
能見度: 10公里
散云层高于4000英尺, 积雨云.
散云层高于25000英尺
附近有雷暴
从 25日的 0200点(UTC)
风速节,风向
能見度: 10公里
多云层高于25000英尺

TAF: KLAL 241138Z 2412/2512 19003KT P6SM BKN250 FM242000 23005KT P6SM VCTS SCT040CB SCT250 FM250200 00000KT P6SM BKN250

超过4000个机场的气象观测和天气预报(METAR&TAF报告)。

可查询的气象台以黄色和红色小点在地图上表示。

将鼠标移到小点上方,可查看气象台名称。

然后点击查看天气观测和预报。

如需切换地图:点击带黑十字的绿色按钮放大地图;点击带横线的绿色按钮缩小地图;或者点击绿色箭头查看邻近地区的地图。


METAR-TAF: